sensor_id;sensor_type;location;lat;lon;timestamp;P1;durP1;ratioP1;P2;durP2;ratioP2
34499;SDS011;20745;50.882;6.962;2023-03-18T00:00:08;15.60;;;4.60;;
34499;SDS011;20745;50.882;6.962;2023-03-18T00:02:37;13.32;;;4.07;;
34499;SDS011;20745;50.882;6.962;2023-03-18T00:05:05;14.70;;;4.53;;
34499;SDS011;20745;50.882;6.962;2023-03-18T00:07:33;16.73;;;5.15;;
34499;SDS011;20745;50.882;6.962;2023-03-18T00:10:01;13.82;;;4.32;;
34499;SDS011;20745;50.882;6.962;2023-03-18T00:12:28;14.38;;;4.10;;
34499;SDS011;20745;50.882;6.962;2023-03-18T00:14:56;19.50;;;4.63;;
34499;SDS011;20745;50.882;6.962;2023-03-18T00:17:22;17.58;;;5.25;;
34499;SDS011;20745;50.882;6.962;2023-03-18T00:19:49;17.65;;;5.38;;
34499;SDS011;20745;50.882;6.962;2023-03-18T00:22:16;16.63;;;5.13;;
34499;SDS011;20745;50.882;6.962;2023-03-18T00:24:42;19.63;;;4.70;;
34499;SDS011;20745;50.882;6.962;2023-03-18T00:27:09;17.00;;;5.35;;
34499;SDS011;20745;50.882;6.962;2023-03-18T00:29:35;15.98;;;5.40;;
34499;SDS011;20745;50.882;6.962;2023-03-18T00:32:02;16.02;;;4.85;;
34499;SDS011;20745;50.882;6.962;2023-03-18T00:34:29;17.63;;;5.20;;
34499;SDS011;20745;50.882;6.962;2023-03-18T00:36:55;21.17;;;5.32;;
34499;SDS011;20745;50.882;6.962;2023-03-18T00:39:22;17.20;;;5.60;;
34499;SDS011;20745;50.882;6.962;2023-03-18T00:41:54;16.65;;;4.93;;
34499;SDS011;20745;50.882;6.962;2023-03-18T00:44:22;17.13;;;5.00;;
34499;SDS011;20745;50.882;6.962;2023-03-18T00:46:50;15.97;;;4.70;;
34499;SDS011;20745;50.882;6.962;2023-03-18T00:49:17;17.73;;;6.15;;
34499;SDS011;20745;50.882;6.962;2023-03-18T00:51:45;20.77;;;7.53;;
34499;SDS011;20745;50.882;6.962;2023-03-18T00:54:12;20.55;;;8.00;;
34499;SDS011;20745;50.882;6.962;2023-03-18T00:56:43;18.70;;;7.70;;
34499;SDS011;20745;50.882;6.962;2023-03-18T00:59:09;18.60;;;6.13;;
34499;SDS011;20745;50.882;6.962;2023-03-18T01:01:36;20.55;;;6.10;;
34499;SDS011;20745;50.882;6.962;2023-03-18T01:04:04;14.40;;;5.35;;
34499;SDS011;20745;50.882;6.962;2023-03-18T01:06:32;18.33;;;5.18;;
34499;SDS011;20745;50.882;6.962;2023-03-18T01:09:00;19.77;;;5.50;;
34499;SDS011;20745;50.882;6.962;2023-03-18T01:11:27;17.40;;;4.95;;
34499;SDS011;20745;50.882;6.962;2023-03-18T01:13:54;14.80;;;5.07;;
34499;SDS011;20745;50.882;6.962;2023-03-18T01:16:21;15.73;;;4.95;;
34499;SDS011;20745;50.882;6.962;2023-03-18T01:18:48;17.35;;;4.57;;
34499;SDS011;20745;50.882;6.962;2023-03-18T01:21:15;14.45;;;4.30;;
34499;SDS011;20745;50.882;6.962;2023-03-18T01:23:43;17.15;;;4.82;;
34499;SDS011;20745;50.882;6.962;2023-03-18T01:26:10;17.05;;;4.50;;
34499;SDS011;20745;50.882;6.962;2023-03-18T01:28:37;15.68;;;4.40;;
34499;SDS011;20745;50.882;6.962;2023-03-18T01:31:04;13.48;;;4.38;;
34499;SDS011;20745;50.882;6.962;2023-03-18T01:33:30;17.73;;;4.88;;
34499;SDS011;20745;50.882;6.962;2023-03-18T01:35:59;14.60;;;4.50;;
34499;SDS011;20745;50.882;6.962;2023-03-18T01:38:27;16.73;;;5.05;;
34499;SDS011;20745;50.882;6.962;2023-03-18T01:40:56;16.40;;;5.13;;
34499;SDS011;20745;50.882;6.962;2023-03-18T01:43:26;18.40;;;5.27;;
34499;SDS011;20745;50.882;6.962;2023-03-18T01:45:57;16.02;;;4.47;;
34499;SDS011;20745;50.882;6.962;2023-03-18T01:48:27;13.75;;;4.95;;
34499;SDS011;20745;50.882;6.962;2023-03-18T01:51:02;17.13;;;5.03;;
34499;SDS011;20745;50.882;6.962;2023-03-18T01:53:33;17.55;;;5.05;;
34499;SDS011;20745;50.882;6.962;2023-03-18T01:56:04;16.33;;;5.50;;
34499;SDS011;20745;50.882;6.962;2023-03-18T01:58:35;18.55;;;5.40;;
34499;SDS011;20745;50.882;6.962;2023-03-18T02:01:10;16.58;;;5.05;;
34499;SDS011;20745;50.882;6.962;2023-03-18T02:03:43;21.83;;;6.00;;
34499;SDS011;20745;50.882;6.962;2023-03-18T02:06:09;14.93;;;5.30;;
34499;SDS011;20745;50.882;6.962;2023-03-18T02:08:37;16.85;;;5.72;;
34499;SDS011;20745;50.882;6.962;2023-03-18T02:11:06;18.73;;;6.32;;
34499;SDS011;20745;50.882;6.962;2023-03-18T02:13:36;16.23;;;5.57;;
34499;SDS011;20745;50.882;6.962;2023-03-18T02:16:05;17.52;;;5.72;;
34499;SDS011;20745;50.882;6.962;2023-03-18T02:18:37;18.08;;;6.00;;
34499;SDS011;20745;50.882;6.962;2023-03-18T02:21:30;16.85;;;5.90;;
34499;SDS011;20745;50.882;6.962;2023-03-18T02:24:21;18.55;;;5.78;;
34499;SDS011;20745;50.882;6.962;2023-03-18T02:30:00;18.20;;;6.50;;
34499;SDS011;20745;50.882;6.962;2023-03-18T02:32:32;19.48;;;6.03;;
34499;SDS011;20745;50.882;6.962;2023-03-18T02:35:00;18.30;;;6.65;;
34499;SDS011;20745;50.882;6.962;2023-03-18T02:37:30;17.52;;;6.88;;
34499;SDS011;20745;50.882;6.962;2023-03-18T02:40:10;20.83;;;6.57;;
34499;SDS011;20745;50.882;6.962;2023-03-18T02:42:49;17.33;;;6.97;;
34499;SDS011;20745;50.882;6.962;2023-03-18T02:47:58;19.20;;;6.95;;
34499;SDS011;20745;50.882;6.962;2023-03-18T02:50:25;17.17;;;6.82;;
34499;SDS011;20745;50.882;6.962;2023-03-18T02:52:53;23.08;;;7.55;;
34499;SDS011;20745;50.882;6.962;2023-03-18T02:55:19;20.95;;;7.22;;
34499;SDS011;20745;50.882;6.962;2023-03-18T02:57:46;19.13;;;6.93;;
34499;SDS011;20745;50.882;6.962;2023-03-18T03:00:12;19.88;;;7.63;;
34499;SDS011;20745;50.882;6.962;2023-03-18T03:02:39;20.42;;;6.68;;
34499;SDS011;20745;50.882;6.962;2023-03-18T03:05:06;17.48;;;6.93;;
34499;SDS011;20745;50.882;6.962;2023-03-18T03:07:34;18.48;;;7.78;;
34499;SDS011;20745;50.882;6.962;2023-03-18T03:10:00;18.67;;;7.20;;
34499;SDS011;20745;50.882;6.962;2023-03-18T03:12:28;17.70;;;7.50;;
34499;SDS011;20745;50.882;6.962;2023-03-18T03:14:54;17.88;;;7.32;;
34499;SDS011;20745;50.882;6.962;2023-03-18T03:17:21;21.70;;;7.78;;
34499;SDS011;20745;50.882;6.962;2023-03-18T03:19:48;19.88;;;8.00;;
34499;SDS011;20745;50.882;6.962;2023-03-18T03:22:14;23.17;;;7.90;;
34499;SDS011;20745;50.882;6.962;2023-03-18T03:24:42;21.60;;;7.40;;
34499;SDS011;20745;50.882;6.962;2023-03-18T03:27:10;19.10;;;7.18;;
34499;SDS011;20745;50.882;6.962;2023-03-18T03:29:37;18.02;;;7.45;;
34499;SDS011;20745;50.882;6.962;2023-03-18T03:32:04;17.42;;;7.15;;
34499;SDS011;20745;50.882;6.962;2023-03-18T03:34:31;18.00;;;7.45;;
34499;SDS011;20745;50.882;6.962;2023-03-18T03:36:58;19.88;;;7.97;;
34499;SDS011;20745;50.882;6.962;2023-03-18T03:39:25;24.38;;;8.13;;
34499;SDS011;20745;50.882;6.962;2023-03-18T03:41:52;18.83;;;8.05;;
34499;SDS011;20745;50.882;6.962;2023-03-18T03:44:18;21.42;;;7.43;;
34499;SDS011;20745;50.882;6.962;2023-03-18T03:46:45;22.27;;;8.68;;
34499;SDS011;20745;50.882;6.962;2023-03-18T03:49:12;22.40;;;8.40;;
34499;SDS011;20745;50.882;6.962;2023-03-18T03:51:38;29.92;;;9.52;;
34499;SDS011;20745;50.882;6.962;2023-03-18T03:54:05;22.45;;;8.27;;
34499;SDS011;20745;50.882;6.962;2023-03-18T03:56:31;20.63;;;8.60;;
34499;SDS011;20745;50.882;6.962;2023-03-18T03:58:58;18.15;;;8.07;;
34499;SDS011;20745;50.882;6.962;2023-03-18T04:01:25;23.35;;;8.55;;
34499;SDS011;20745;50.882;6.962;2023-03-18T04:03:52;18.67;;;7.80;;
34499;SDS011;20745;50.882;6.962;2023-03-18T04:06:18;22.25;;;8.30;;
34499;SDS011;20745;50.882;6.962;2023-03-18T04:08:45;19.20;;;7.72;;
34499;SDS011;20745;50.882;6.962;2023-03-18T04:11:11;17.13;;;6.85;;
34499;SDS011;20745;50.882;6.962;2023-03-18T04:13:38;19.90;;;7.35;;
34499;SDS011;20745;50.882;6.962;2023-03-18T04:16:04;17.30;;;6.75;;
34499;SDS011;20745;50.882;6.962;2023-03-18T04:18:32;22.02;;;6.07;;
34499;SDS011;20745;50.882;6.962;2023-03-18T04:20:59;19.17;;;6.50;;
34499;SDS011;20745;50.882;6.962;2023-03-18T04:23:25;18.63;;;6.40;;
34499;SDS011;20745;50.882;6.962;2023-03-18T04:25:52;14.25;;;5.53;;
34499;SDS011;20745;50.882;6.962;2023-03-18T04:28:19;13.77;;;5.50;;
34499;SDS011;20745;50.882;6.962;2023-03-18T04:30:46;16.55;;;6.25;;
34499;SDS011;20745;50.882;6.962;2023-03-18T04:33:13;17.35;;;5.50;;
34499;SDS011;20745;50.882;6.962;2023-03-18T04:35:40;15.93;;;5.70;;
34499;SDS011;20745;50.882;6.962;2023-03-18T04:38:08;17.10;;;5.80;;
34499;SDS011;20745;50.882;6.962;2023-03-18T04:40:35;15.45;;;5.43;;
34499;SDS011;20745;50.882;6.962;2023-03-18T04:43:01;16.27;;;5.30;;
34499;SDS011;20745;50.882;6.962;2023-03-18T04:45:28;16.80;;;5.95;;
34499;SDS011;20745;50.882;6.962;2023-03-18T04:47:55;14.90;;;5.15;;
34499;SDS011;20745;50.882;6.962;2023-03-18T04:50:21;16.60;;;6.15;;
34499;SDS011;20745;50.882;6.962;2023-03-18T04:52:49;14.75;;;5.88;;
34499;SDS011;20745;50.882;6.962;2023-03-18T04:55:15;16.17;;;6.28;;
34499;SDS011;20745;50.882;6.962;2023-03-18T04:57:43;19.73;;;6.38;;
34499;SDS011;20745;50.882;6.962;2023-03-18T05:00:10;14.77;;;5.93;;
34499;SDS011;20745;50.882;6.962;2023-03-18T05:02:40;19.08;;;5.72;;
34499;SDS011;20745;50.882;6.962;2023-03-18T05:05:06;17.75;;;6.20;;
34499;SDS011;20745;50.882;6.962;2023-03-18T05:07:33;15.10;;;5.63;;
34499;SDS011;20745;50.882;6.962;2023-03-18T05:10:00;12.73;;;5.00;;
34499;SDS011;20745;50.882;6.962;2023-03-18T05:12:27;15.10;;;5.38;;
34499;SDS011;20745;50.882;6.962;2023-03-18T05:14:53;16.13;;;5.50;;
34499;SDS011;20745;50.882;6.962;2023-03-18T05:17:20;14.25;;;5.28;;
34499;SDS011;20745;50.882;6.962;2023-03-18T05:19:47;16.60;;;5.90;;
34499;SDS011;20745;50.882;6.962;2023-03-18T05:22:15;20.63;;;6.15;;
34499;SDS011;20745;50.882;6.962;2023-03-18T05:24:43;15.93;;;5.60;;
34499;SDS011;20745;50.882;6.962;2023-03-18T05:27:14;15.02;;;5.43;;
34499;SDS011;20745;50.882;6.962;2023-03-18T05:29:43;18.58;;;5.93;;
34499;SDS011;20745;50.882;6.962;2023-03-18T05:32:10;15.25;;;6.03;;
34499;SDS011;20745;50.882;6.962;2023-03-18T05:34:38;15.75;;;5.82;;
34499;SDS011;20745;50.882;6.962;2023-03-18T05:37:07;16.38;;;5.80;;
34499;SDS011;20745;50.882;6.962;2023-03-18T05:39:35;15.85;;;5.90;;
34499;SDS011;20745;50.882;6.962;2023-03-18T05:42:02;17.83;;;6.25;;
34499;SDS011;20745;50.882;6.962;2023-03-18T05:44:29;15.60;;;5.97;;
34499;SDS011;20745;50.882;6.962;2023-03-18T05:46:56;15.13;;;5.43;;
34499;SDS011;20745;50.882;6.962;2023-03-18T05:49:23;16.25;;;6.20;;
34499;SDS011;20745;50.882;6.962;2023-03-18T05:51:50;16.85;;;7.20;;
34499;SDS011;20745;50.882;6.962;2023-03-18T05:56:47;16.27;;;7.18;;
34499;SDS011;20745;50.882;6.962;2023-03-18T05:59:13;19.23;;;7.25;;
34499;SDS011;20745;50.882;6.962;2023-03-18T06:01:40;20.75;;;7.72;;
34499;SDS011;20745;50.882;6.962;2023-03-18T06:04:07;22.83;;;8.77;;
34499;SDS011;20745;50.882;6.962;2023-03-18T06:06:34;19.58;;;7.35;;
34499;SDS011;20745;50.882;6.962;2023-03-18T06:09:08;19.27;;;6.88;;
34499;SDS011;20745;50.882;6.962;2023-03-18T06:11:35;18.98;;;7.53;;
34499;SDS011;20745;50.882;6.962;2023-03-18T06:14:03;16.02;;;7.07;;
34499;SDS011;20745;50.882;6.962;2023-03-18T06:16:32;17.67;;;7.22;;
34499;SDS011;20745;50.882;6.962;2023-03-18T06:19:00;15.73;;;7.03;;
34499;SDS011;20745;50.882;6.962;2023-03-18T06:21:27;18.17;;;7.03;;
34499;SDS011;20745;50.882;6.962;2023-03-18T06:23:54;19.13;;;6.97;;
34499;SDS011;20745;50.882;6.962;2023-03-18T06:26:21;17.65;;;7.10;;
34499;SDS011;20745;50.882;6.962;2023-03-18T06:28:48;19.60;;;6.90;;
34499;SDS011;20745;50.882;6.962;2023-03-18T06:31:14;15.93;;;6.63;;
34499;SDS011;20745;50.882;6.962;2023-03-18T06:33:41;20.75;;;6.80;;
34499;SDS011;20745;50.882;6.962;2023-03-18T06:36:08;17.83;;;7.03;;
34499;SDS011;20745;50.882;6.962;2023-03-18T06:38:35;19.35;;;6.72;;
34499;SDS011;20745;50.882;6.962;2023-03-18T06:41:03;18.13;;;6.40;;
34499;SDS011;20745;50.882;6.962;2023-03-18T06:43:30;16.58;;;6.32;;
34499;SDS011;20745;50.882;6.962;2023-03-18T06:45:56;16.55;;;6.32;;
34499;SDS011;20745;50.882;6.962;2023-03-18T06:48:24;18.17;;;6.85;;
34499;SDS011;20745;50.882;6.962;2023-03-18T06:50:51;17.67;;;6.50;;
34499;SDS011;20745;50.882;6.962;2023-03-18T06:53:17;17.77;;;6.80;;
34499;SDS011;20745;50.882;6.962;2023-03-18T06:55:44;20.45;;;6.20;;
34499;SDS011;20745;50.882;6.962;2023-03-18T06:58:10;16.80;;;6.18;;
34499;SDS011;20745;50.882;6.962;2023-03-18T07:00:37;17.83;;;6.38;;
34499;SDS011;20745;50.882;6.962;2023-03-18T07:03:06;16.90;;;6.13;;
34499;SDS011;20745;50.882;6.962;2023-03-18T07:05:33;16.60;;;6.53;;
34499;SDS011;20745;50.882;6.962;2023-03-18T07:07:59;17.75;;;6.50;;
34499;SDS011;20745;50.882;6.962;2023-03-18T07:10:27;17.88;;;5.97;;
34499;SDS011;20745;50.882;6.962;2023-03-18T07:12:55;18.17;;;6.13;;
34499;SDS011;20745;50.882;6.962;2023-03-18T07:15:23;17.45;;;6.38;;
34499;SDS011;20745;50.882;6.962;2023-03-18T07:17:49;16.73;;;6.57;;
34499;SDS011;20745;50.882;6.962;2023-03-18T07:20:17;18.52;;;6.63;;
34499;SDS011;20745;50.882;6.962;2023-03-18T07:22:45;16.88;;;5.90;;
34499;SDS011;20745;50.882;6.962;2023-03-18T07:25:12;17.33;;;5.75;;
34499;SDS011;20745;50.882;6.962;2023-03-18T07:27:39;16.60;;;6.05;;
34499;SDS011;20745;50.882;6.962;2023-03-18T07:30:07;18.08;;;6.28;;
34499;SDS011;20745;50.882;6.962;2023-03-18T07:32:35;17.38;;;6.35;;
34499;SDS011;20745;50.882;6.962;2023-03-18T07:35:04;16.70;;;6.25;;
34499;SDS011;20745;50.882;6.962;2023-03-18T07:37:31;19.08;;;5.90;;
34499;SDS011;20745;50.882;6.962;2023-03-18T07:39:58;18.02;;;5.90;;
34499;SDS011;20745;50.882;6.962;2023-03-18T07:42:25;16.08;;;6.13;;
34499;SDS011;20745;50.882;6.962;2023-03-18T07:44:51;15.90;;;6.13;;
34499;SDS011;20745;50.882;6.962;2023-03-18T07:47:18;18.10;;;5.82;;
34499;SDS011;20745;50.882;6.962;2023-03-18T07:49:45;16.20;;;5.40;;
34499;SDS011;20745;50.882;6.962;2023-03-18T07:52:12;14.20;;;5.57;;
34499;SDS011;20745;50.882;6.962;2023-03-18T07:54:39;18.85;;;5.63;;
34499;SDS011;20745;50.882;6.962;2023-03-18T07:57:06;15.88;;;4.97;;
34499;SDS011;20745;50.882;6.962;2023-03-18T07:59:33;13.10;;;4.78;;
34499;SDS011;20745;50.882;6.962;2023-03-18T08:02:00;17.30;;;5.38;;
34499;SDS011;20745;50.882;6.962;2023-03-18T08:04:26;15.73;;;5.35;;
34499;SDS011;20745;50.882;6.962;2023-03-18T08:06:53;16.20;;;4.95;;
34499;SDS011;20745;50.882;6.962;2023-03-18T08:09:20;15.20;;;5.30;;
34499;SDS011;20745;50.882;6.962;2023-03-18T08:11:47;15.20;;;5.03;;
34499;SDS011;20745;50.882;6.962;2023-03-18T08:14:13;16.05;;;5.18;;
34499;SDS011;20745;50.882;6.962;2023-03-18T08:16:40;14.50;;;4.75;;
34499;SDS011;20745;50.882;6.962;2023-03-18T08:19:07;16.23;;;5.32;;
34499;SDS011;20745;50.882;6.962;2023-03-18T08:21:33;16.05;;;5.30;;
34499;SDS011;20745;50.882;6.962;2023-03-18T08:24:00;16.48;;;5.38;;
34499;SDS011;20745;50.882;6.962;2023-03-18T08:26:27;16.45;;;4.80;;
34499;SDS011;20745;50.882;6.962;2023-03-18T08:28:53;14.30;;;5.10;;
34499;SDS011;20745;50.882;6.962;2023-03-18T08:31:20;15.00;;;5.20;;
34499;SDS011;20745;50.882;6.962;2023-03-18T08:33:46;12.57;;;4.32;;
34499;SDS011;20745;50.882;6.962;2023-03-18T08:36:14;15.52;;;4.30;;
34499;SDS011;20745;50.882;6.962;2023-03-18T08:38:41;13.95;;;4.35;;
34499;SDS011;20745;50.882;6.962;2023-03-18T08:41:08;13.70;;;4.70;;
34499;SDS011;20745;50.882;6.962;2023-03-18T08:43:35;15.10;;;4.80;;
34499;SDS011;20745;50.882;6.962;2023-03-18T08:46:04;11.32;;;4.13;;
34499;SDS011;20745;50.882;6.962;2023-03-18T08:48:31;12.77;;;3.83;;
34499;SDS011;20745;50.882;6.962;2023-03-18T08:50:58;21.30;;;4.63;;
34499;SDS011;20745;50.882;6.962;2023-03-18T08:53:24;12.23;;;4.30;;
34499;SDS011;20745;50.882;6.962;2023-03-18T08:55:51;11.43;;;4.07;;
34499;SDS011;20745;50.882;6.962;2023-03-18T08:58:17;13.32;;;4.53;;
34499;SDS011;20745;50.882;6.962;2023-03-18T09:00:44;16.02;;;4.82;;
34499;SDS011;20745;50.882;6.962;2023-03-18T09:03:10;12.43;;;4.32;;
34499;SDS011;20745;50.882;6.962;2023-03-18T09:05:38;13.05;;;4.32;;
34499;SDS011;20745;50.882;6.962;2023-03-18T09:08:05;12.50;;;4.03;;
34499;SDS011;20745;50.882;6.962;2023-03-18T09:10:32;11.57;;;3.97;;
34499;SDS011;20745;50.882;6.962;2023-03-18T09:12:58;15.95;;;4.38;;
34499;SDS011;20745;50.882;6.962;2023-03-18T09:15:26;13.10;;;3.95;;
34499;SDS011;20745;50.882;6.962;2023-03-18T09:17:52;10.90;;;3.92;;
34499;SDS011;20745;50.882;6.962;2023-03-18T09:20:37;11.73;;;3.58;;
34499;SDS011;20745;50.882;6.962;2023-03-18T09:23:04;13.00;;;3.90;;
34499;SDS011;20745;50.882;6.962;2023-03-18T09:25:31;15.38;;;4.63;;
34499;SDS011;20745;50.882;6.962;2023-03-18T09:27:59;13.73;;;4.60;;
34499;SDS011;20745;50.882;6.962;2023-03-18T09:30:26;13.70;;;4.80;;
34499;SDS011;20745;50.882;6.962;2023-03-18T09:32:55;11.68;;;3.95;;
34499;SDS011;20745;50.882;6.962;2023-03-18T09:35:21;12.65;;;4.25;;
34499;SDS011;20745;50.882;6.962;2023-03-18T09:37:49;13.32;;;4.22;;
34499;SDS011;20745;50.882;6.962;2023-03-18T09:40:29;13.48;;;4.05;;
34499;SDS011;20745;50.882;6.962;2023-03-18T09:55:16;14.38;;;3.80;;
34499;SDS011;20745;50.882;6.962;2023-03-18T09:57:29;15.60;;;4.28;;
34499;SDS011;20745;50.882;6.962;2023-03-18T10:00:00;12.18;;;3.70;;
34499;SDS011;20745;50.882;6.962;2023-03-18T10:02:31;14.30;;;3.78;;
34499;SDS011;20745;50.882;6.962;2023-03-18T10:05:03;16.50;;;3.83;;
34499;SDS011;20745;50.882;6.962;2023-03-18T10:07:37;11.18;;;3.50;;
34499;SDS011;20745;50.882;6.962;2023-03-18T10:10:11;11.23;;;3.75;;
34499;SDS011;20745;50.882;6.962;2023-03-18T10:12:48;12.70;;;3.53;;
34499;SDS011;20745;50.882;6.962;2023-03-18T10:15:23;10.52;;;3.40;;
34499;SDS011;20745;50.882;6.962;2023-03-18T10:20:48;11.85;;;3.28;;
34499;SDS011;20745;50.882;6.962;2023-03-18T10:23:43;12.15;;;3.58;;
34499;SDS011;20745;50.882;6.962;2023-03-18T10:26:27;7.82;;;2.55;;
34499;SDS011;20745;50.882;6.962;2023-03-18T10:34:16;11.10;;;2.80;;
34499;SDS011;20745;50.882;6.962;2023-03-18T10:39:23;10.85;;;2.97;;
34499;SDS011;20745;50.882;6.962;2023-03-18T10:44:27;10.48;;;2.35;;
34499;SDS011;20745;50.882;6.962;2023-03-18T10:49:36;11.55;;;2.90;;
34499;SDS011;20745;50.882;6.962;2023-03-18T10:52:09;10.38;;;2.60;;
34499;SDS011;20745;50.882;6.962;2023-03-18T10:54:58;11.60;;;2.85;;
34499;SDS011;20745;50.882;6.962;2023-03-18T10:57:25;6.45;;;2.25;;
34499;SDS011;20745;50.882;6.962;2023-03-18T10:59:52;8.38;;;2.70;;
34499;SDS011;20745;50.882;6.962;2023-03-18T11:02:29;9.02;;;2.20;;
34499;SDS011;20745;50.882;6.962;2023-03-18T11:07:30;10.13;;;2.28;;
34499;SDS011;20745;50.882;6.962;2023-03-18T11:10:13;10.40;;;2.38;;
34499;SDS011;20745;50.882;6.962;2023-03-18T11:12:44;8.38;;;2.28;;
34499;SDS011;20745;50.882;6.962;2023-03-18T11:15:11;10.57;;;2.25;;
34499;SDS011;20745;50.882;6.962;2023-03-18T11:17:38;7.93;;;2.38;;
34499;SDS011;20745;50.882;6.962;2023-03-18T11:20:18;9.27;;;2.58;;
34499;SDS011;20745;50.882;6.962;2023-03-18T11:22:51;9.32;;;2.25;;
34499;SDS011;20745;50.882;6.962;2023-03-18T11:25:21;7.43;;;2.20;;
34499;SDS011;20745;50.882;6.962;2023-03-18T11:27:55;6.88;;;1.98;;
34499;SDS011;20745;50.882;6.962;2023-03-18T11:30:28;7.78;;;2.20;;
34499;SDS011;20745;50.882;6.962;2023-03-18T11:35:35;6.63;;;1.90;;
34499;SDS011;20745;50.882;6.962;2023-03-18T11:38:13;10.52;;;2.38;;
34499;SDS011;20745;50.882;6.962;2023-03-18T11:40:42;9.40;;;2.40;;
34499;SDS011;20745;50.882;6.962;2023-03-18T11:43:14;9.90;;;2.40;;
34499;SDS011;20745;50.882;6.962;2023-03-18T11:45:48;7.28;;;1.73;;
34499;SDS011;20745;50.882;6.962;2023-03-18T11:48:21;9.73;;;2.67;;
34499;SDS011;20745;50.882;6.962;2023-03-18T11:50:59;7.72;;;2.10;;
34499;SDS011;20745;50.882;6.962;2023-03-18T11:56:13;7.72;;;1.80;;
34499;SDS011;20745;50.882;6.962;2023-03-18T11:58:45;8.07;;;1.90;;
34499;SDS011;20745;50.882;6.962;2023-03-18T12:01:59;7.93;;;1.95;;
34499;SDS011;20745;50.882;6.962;2023-03-18T12:12:44;7.65;;;1.92;;
34499;SDS011;20745;50.882;6.962;2023-03-18T12:15:18;7.68;;;1.95;;
34499;SDS011;20745;50.882;6.962;2023-03-18T12:18:05;8.32;;;2.20;;
34499;SDS011;20745;50.882;6.962;2023-03-18T12:20:52;8.10;;;1.73;;
34499;SDS011;20745;50.882;6.962;2023-03-18T12:34:11;8.10;;;2.00;;
34499;SDS011;20745;50.882;6.962;2023-03-18T12:42:25;7.72;;;1.70;;
34499;SDS011;20745;50.882;6.962;2023-03-18T12:45:12;10.40;;;1.80;;
34499;SDS011;20745;50.882;6.962;2023-03-18T12:47:59;6.00;;;1.63;;
34499;SDS011;20745;50.882;6.962;2023-03-18T12:51:11;6.93;;;1.60;;
34499;SDS011;20745;50.882;6.962;2023-03-18T12:53:44;7.05;;;1.90;;
34499;SDS011;20745;50.882;6.962;2023-03-18T12:56:16;12.05;;;2.50;;
34499;SDS011;20745;50.882;6.962;2023-03-18T12:58:47;7.78;;;1.90;;
34499;SDS011;20745;50.882;6.962;2023-03-18T13:01:31;7.40;;;1.88;;
34499;SDS011;20745;50.882;6.962;2023-03-18T13:04:05;8.25;;;2.13;;
34499;SDS011;20745;50.882;6.962;2023-03-18T13:06:41;10.73;;;2.17;;
34499;SDS011;20745;50.882;6.962;2023-03-18T13:14:46;9.73;;;1.90;;
34499;SDS011;20745;50.882;6.962;2023-03-18T13:17:19;7.63;;;2.08;;
34499;SDS011;20745;50.882;6.962;2023-03-18T13:19:49;9.02;;;2.15;;
34499;SDS011;20745;50.882;6.962;2023-03-18T13:25:26;8.98;;;2.00;;
34499;SDS011;20745;50.882;6.962;2023-03-18T13:31:09;8.57;;;1.90;;
34499;SDS011;20745;50.882;6.962;2023-03-18T13:39:42;9.20;;;1.90;;
34499;SDS011;20745;50.882;6.962;2023-03-18T13:42:28;11.48;;;2.10;;
34499;SDS011;20745;50.882;6.962;2023-03-18T13:47:30;10.23;;;1.85;;
34499;SDS011;20745;50.882;6.962;2023-03-18T13:50:00;8.40;;;1.85;;
34499;SDS011;20745;50.882;6.962;2023-03-18T13:52:40;9.27;;;1.98;;
34499;SDS011;20745;50.882;6.962;2023-03-18T13:57:46;10.50;;;1.85;;
34499;SDS011;20745;50.882;6.962;2023-03-18T14:03:25;8.55;;;1.88;;
34499;SDS011;20745;50.882;6.962;2023-03-18T14:16:20;9.35;;;2.50;;
34499;SDS011;20745;50.882;6.962;2023-03-18T14:18:54;10.32;;;2.15;;
34499;SDS011;20745;50.882;6.962;2023-03-18T14:21:25;9.20;;;2.35;;
34499;SDS011;20745;50.882;6.962;2023-03-18T14:24:01;10.85;;;2.45;;
34499;SDS011;20745;50.882;6.962;2023-03-18T14:26:33;10.15;;;2.30;;
34499;SDS011;20745;50.882;6.962;2023-03-18T14:39:23;6.78;;;2.13;;
34499;SDS011;20745;50.882;6.962;2023-03-18T14:42:06;9.75;;;2.42;;
34499;SDS011;20745;50.882;6.962;2023-03-18T14:44:45;10.30;;;2.65;;
34499;SDS011;20745;50.882;6.962;2023-03-18T14:47:19;10.30;;;2.60;;
34499;SDS011;20745;50.882;6.962;2023-03-18T14:50:50;13.07;;;2.75;;
34499;SDS011;20745;50.882;6.962;2023-03-18T14:53:16;11.63;;;2.38;;
34499;SDS011;20745;50.882;6.962;2023-03-18T14:55:49;9.07;;;2.45;;
34499;SDS011;20745;50.882;6.962;2023-03-18T14:58:17;11.13;;;2.60;;
34499;SDS011;20745;50.882;6.962;2023-03-18T15:00:47;11.77;;;2.50;;
34499;SDS011;20745;50.882;6.962;2023-03-18T15:03:28;8.73;;;2.15;;
34499;SDS011;20745;50.882;6.962;2023-03-18T15:06:00;10.48;;;2.20;;
34499;SDS011;20745;50.882;6.962;2023-03-18T15:08:35;13.45;;;3.97;;
34499;SDS011;20745;50.882;6.962;2023-03-18T15:11:13;9.55;;;2.40;;
34499;SDS011;20745;50.882;6.962;2023-03-18T15:13:42;11.82;;;2.22;;
34499;SDS011;20745;50.882;6.962;2023-03-18T15:16:09;9.60;;;2.00;;
34499;SDS011;20745;50.882;6.962;2023-03-18T15:18:38;9.10;;;1.92;;
34499;SDS011;20745;50.882;6.962;2023-03-18T15:21:09;8.48;;;1.95;;
34499;SDS011;20745;50.882;6.962;2023-03-18T15:23:42;15.15;;;2.47;;
34499;SDS011;20745;50.882;6.962;2023-03-18T15:26:17;8.27;;;2.20;;
34499;SDS011;20745;50.882;6.962;2023-03-18T15:28:47;8.85;;;1.80;;
34499;SDS011;20745;50.882;6.962;2023-03-18T15:31:25;7.68;;;1.85;;
34499;SDS011;20745;50.882;6.962;2023-03-18T15:34:05;21.88;;;5.72;;
34499;SDS011;20745;50.882;6.962;2023-03-18T15:36:42;11.10;;;2.60;;
34499;SDS011;20745;50.882;6.962;2023-03-18T15:39:43;8.30;;;1.85;;
34499;SDS011;20745;50.882;6.962;2023-03-18T15:42:12;9.13;;;2.25;;
34499;SDS011;20745;50.882;6.962;2023-03-18T15:44:41;12.48;;;2.75;;
34499;SDS011;20745;50.882;6.962;2023-03-18T15:47:15;6.53;;;1.98;;
34499;SDS011;20745;50.882;6.962;2023-03-18T15:49:53;8.55;;;2.40;;
34499;SDS011;20745;50.882;6.962;2023-03-18T15:52:22;9.57;;;2.00;;
34499;SDS011;20745;50.882;6.962;2023-03-18T15:54:52;10.50;;;2.30;;
34499;SDS011;20745;50.882;6.962;2023-03-18T15:57:28;7.10;;;1.90;;
34499;SDS011;20745;50.882;6.962;2023-03-18T15:59:59;10.73;;;1.77;;
34499;SDS011;20745;50.882;6.962;2023-03-18T16:02:27;8.25;;;1.98;;
34499;SDS011;20745;50.882;6.962;2023-03-18T16:05:05;8.25;;;1.50;;
34499;SDS011;20745;50.882;6.962;2023-03-18T16:07:37;6.93;;;1.92;;
34499;SDS011;20745;50.882;6.962;2023-03-18T16:10:03;8.18;;;1.63;;
34499;SDS011;20745;50.882;6.962;2023-03-18T16:12:30;12.13;;;2.33;;
34499;SDS011;20745;50.882;6.962;2023-03-18T16:14:59;7.60;;;1.55;;
34499;SDS011;20745;50.882;6.962;2023-03-18T16:17:28;8.73;;;2.20;;
34499;SDS011;20745;50.882;6.962;2023-03-18T16:19:55;9.00;;;1.85;;
34499;SDS011;20745;50.882;6.962;2023-03-18T16:22:22;8.05;;;1.92;;
34499;SDS011;20745;50.882;6.962;2023-03-18T16:24:49;8.50;;;1.60;;
34499;SDS011;20745;50.882;6.962;2023-03-18T16:27:37;11.02;;;2.30;;
34499;SDS011;20745;50.882;6.962;2023-03-18T16:30:15;7.20;;;1.55;;
34499;SDS011;20745;50.882;6.962;2023-03-18T16:32:48;10.15;;;2.00;;
34499;SDS011;20745;50.882;6.962;2023-03-18T16:35:16;9.98;;;2.42;;
34499;SDS011;20745;50.882;6.962;2023-03-18T16:37:47;12.00;;;2.75;;
34499;SDS011;20745;50.882;6.962;2023-03-18T16:40:15;8.95;;;2.13;;
34499;SDS011;20745;50.882;6.962;2023-03-18T16:42:43;10.05;;;2.20;;
34499;SDS011;20745;50.882;6.962;2023-03-18T16:45:14;10.38;;;1.80;;
34499;SDS011;20745;50.882;6.962;2023-03-18T16:47:49;7.65;;;1.80;;
34499;SDS011;20745;50.882;6.962;2023-03-18T16:50:17;9.07;;;1.50;;